createdAt,value
2017-06-09T00:01:05.394Z,19.20
2017-06-09T00:03:33.664Z,19.20
2017-06-09T00:06:02.287Z,19.10
2017-06-09T00:08:30.516Z,19.10
2017-06-09T00:10:58.913Z,19.20
2017-06-09T00:13:27.153Z,19.20
2017-06-09T00:15:55.786Z,19.10
2017-06-09T00:18:24.039Z,19.10
2017-06-09T00:20:52.275Z,19.00
2017-06-09T00:23:20.512Z,19.00
2017-06-09T00:25:49.376Z,19.00
2017-06-09T00:28:17.748Z,18.90
2017-06-09T00:30:45.980Z,18.80
2017-06-09T00:33:14.681Z,18.80
2017-06-09T00:35:43.308Z,18.70
2017-06-09T00:38:11.828Z,18.70
2017-06-09T00:40:40.087Z,18.80
2017-06-09T00:43:08.323Z,18.80
2017-06-09T00:45:36.561Z,18.90
2017-06-09T00:48:04.855Z,19.10
2017-06-09T00:50:33.479Z,18.90
2017-06-09T00:53:01.868Z,18.90
2017-06-09T00:55:30.096Z,18.90
2017-06-09T00:57:58.721Z,18.70
2017-06-09T01:00:27.201Z,18.70
2017-06-09T01:02:55.435Z,18.70
2017-06-09T01:05:24.087Z,18.50
2017-06-09T01:07:52.591Z,18.50
2017-06-09T01:10:20.815Z,18.50
2017-06-09T01:12:49.043Z,18.60
2017-06-09T01:15:17.718Z,18.50
2017-06-09T01:17:45.955Z,18.50
2017-06-09T01:20:14.483Z,18.50
2017-06-09T01:22:42.751Z,18.50
2017-06-09T01:25:10.981Z,18.40
2017-06-09T01:27:39.216Z,18.20
2017-06-09T01:30:07.855Z,18.30
2017-06-09T01:32:36.092Z,18.30
2017-06-09T01:35:04.356Z,18.30
2017-06-09T01:37:32.985Z,18.40
2017-06-09T01:40:01.216Z,18.50
2017-06-09T01:42:29.900Z,18.30
2017-06-09T01:44:58.528Z,18.20
2017-06-09T01:47:26.763Z,18.20
2017-06-09T01:49:55.032Z,18.20
2017-06-09T01:52:23.264Z,18.20
2017-06-09T01:54:51.502Z,18.10
2017-06-09T01:57:19.780Z,18.00
2017-06-09T01:59:48.014Z,18.00
2017-06-09T02:02:16.248Z,18.10
2017-06-09T02:04:44.554Z,18.30
2017-06-09T02:07:12.771Z,18.20
2017-06-09T02:09:41.400Z,18.10
2017-06-09T02:12:09.664Z,18.10
2017-06-09T02:14:37.897Z,17.90
2017-06-09T02:17:06.523Z,17.70
2017-06-09T02:19:34.787Z,17.70
2017-06-09T02:22:03.044Z,17.60
2017-06-09T02:24:31.275Z,17.70
2017-06-09T02:26:59.731Z,17.80
2017-06-09T02:29:27.955Z,17.80
2017-06-09T02:31:56.727Z,17.90
2017-06-09T02:34:24.981Z,17.90
2017-06-09T02:36:53.276Z,17.80
2017-06-09T02:39:21.531Z,17.70
2017-06-09T02:41:49.784Z,17.90
2017-06-09T02:44:18.035Z,17.80
2017-06-09T02:46:46.995Z,18.00
2017-06-09T02:49:15.268Z,18.00
2017-06-09T02:51:43.552Z,18.10
2017-06-09T02:54:11.800Z,18.10
2017-06-09T02:56:40.048Z,18.10
2017-06-09T02:59:08.325Z,18.10
2017-06-09T03:01:36.555Z,18.20
2017-06-09T03:04:05.747Z,18.10
2017-06-09T03:06:43.876Z,18.00
2017-06-09T03:09:12.113Z,17.80
2017-06-09T03:11:40.748Z,17.80
2017-06-09T03:14:09.124Z,17.90
2017-06-09T03:16:38.020Z,17.70
2017-06-09T03:19:06.253Z,17.70
2017-06-09T03:21:34.840Z,17.70
2017-06-09T03:24:03.072Z,17.70
2017-06-09T03:26:31.544Z,17.70
2017-06-09T03:28:59.930Z,17.70
2017-06-09T03:31:33.956Z,17.80
2017-06-09T03:34:02.248Z,17.80
2017-06-09T03:36:30.484Z,17.80
2017-06-09T03:38:58.722Z,17.80
2017-06-09T03:41:27.296Z,17.80
2017-06-09T03:43:55.535Z,17.90
2017-06-09T03:46:23.772Z,17.80
2017-06-09T03:48:52.183Z,17.70
2017-06-09T03:51:20.711Z,17.80
2017-06-09T03:53:48.936Z,18.00
2017-06-09T03:56:17.180Z,18.10
2017-06-09T03:58:45.443Z,17.90
2017-06-09T04:01:13.712Z,17.90
2017-06-09T04:03:41.948Z,17.70
2017-06-09T04:06:10.185Z,17.70
2017-06-09T04:08:38.831Z,17.60
2017-06-09T04:11:07.068Z,17.60
2017-06-09T04:13:35.609Z,17.50
2017-06-09T04:16:04.184Z,17.60
2017-06-09T04:18:32.429Z,17.50
2017-06-09T04:21:00.661Z,17.70
2017-06-09T04:23:29.337Z,17.80
2017-06-09T04:25:57.904Z,17.80
2017-06-09T04:28:26.144Z,18.00
2017-06-09T04:30:54.659Z,18.10
2017-06-09T04:33:22.898Z,18.10
2017-06-09T04:35:51.204Z,18.00
2017-06-09T04:38:19.441Z,17.80
2017-06-09T04:40:47.672Z,17.80
2017-06-09T04:43:16.034Z,18.00
2017-06-09T04:45:44.245Z,18.10
2017-06-09T04:48:12.481Z,18.10
2017-06-09T04:50:40.772Z,18.10
2017-06-09T04:53:09.011Z,18.30
2017-06-09T04:55:37.245Z,18.40
2017-06-09T04:58:06.049Z,18.50
2017-06-09T05:00:34.282Z,18.50
2017-06-09T05:03:02.531Z,18.60
2017-06-09T05:05:31.150Z,18.50
2017-06-09T05:07:59.372Z,18.60
2017-06-09T05:10:27.802Z,18.60
2017-06-09T05:12:56.150Z,18.60
2017-06-09T05:15:24.448Z,18.60
2017-06-09T05:17:52.679Z,18.60
2017-06-09T05:20:21.198Z,18.60
2017-06-09T05:22:49.415Z,18.60
2017-06-09T05:25:18.094Z,18.90
2017-06-09T05:27:46.299Z,18.90
2017-06-09T05:30:14.548Z,18.90
2017-06-09T05:32:42.780Z,19.00
2017-06-09T05:35:11.832Z,19.20
2017-06-09T05:37:40.676Z,19.30
2017-06-09T05:40:09.021Z,19.40
2017-06-09T05:42:37.914Z,19.40
2017-06-09T05:45:06.139Z,19.10
2017-06-09T05:47:34.372Z,19.30
2017-06-09T05:50:02.889Z,19.40
2017-06-09T05:52:31.159Z,19.50
2017-06-09T05:54:59.398Z,19.80
2017-06-09T05:57:28.039Z,19.80
2017-06-09T05:59:56.547Z,20.00
2017-06-09T06:02:25.232Z,20.00
2017-06-09T06:04:53.470Z,20.00
2017-06-09T06:07:21.701Z,20.00
2017-06-09T06:09:50.140Z,20.00
2017-06-09T06:12:18.390Z,20.10
2017-06-09T06:14:46.725Z,20.20
2017-06-09T06:17:14.977Z,20.40
2017-06-09T06:19:43.211Z,20.50
2017-06-09T06:22:11.447Z,20.70
2017-06-09T06:24:39.887Z,20.80
2017-06-09T06:27:08.911Z,20.90
2017-06-09T06:29:38.144Z,21.20
2017-06-09T06:32:06.412Z,21.60
2017-06-09T06:34:34.659Z,21.80
2017-06-09T06:37:02.888Z,22.40
2017-06-09T06:39:31.349Z,22.60
2017-06-09T06:41:59.584Z,22.90
2017-06-09T06:44:27.835Z,23.10
2017-06-09T06:46:56.096Z,23.20
2017-06-09T06:49:24.348Z,23.30
2017-06-09T06:51:53.134Z,23.60
2017-06-09T06:54:21.726Z,23.70
2017-06-09T06:56:49.968Z,23.50
2017-06-09T06:59:18.195Z,23.30
2017-06-09T07:01:46.511Z,23.30
2017-06-09T07:04:14.769Z,23.30
2017-06-09T07:06:43.006Z,23.40
2017-06-09T07:09:12.218Z,23.50
2017-06-09T07:11:40.452Z,23.70
2017-06-09T07:14:08.748Z,24.10
2017-06-09T07:16:37.046Z,24.50
2017-06-09T07:19:05.301Z,24.10
2017-06-09T07:21:33.577Z,24.10
2017-06-09T07:24:01.903Z,24.10
2017-06-09T07:26:30.151Z,22.30
2017-06-09T07:28:58.642Z,21.90
2017-06-09T07:31:26.892Z,22.00
2017-06-09T07:33:55.122Z,23.00
2017-06-09T07:36:23.730Z,23.90
2017-06-09T07:38:52.397Z,24.50
2017-06-09T07:41:20.637Z,25.60
2017-06-09T07:43:49.021Z,26.30
2017-06-09T07:46:17.266Z,26.80
2017-06-09T07:48:45.724Z,27.50
2017-06-09T07:51:14.450Z,27.60
2017-06-09T07:53:42.675Z,27.60
2017-06-09T07:56:10.918Z,27.60
2017-06-09T07:58:39.443Z,27.30
2017-06-09T08:01:07.696Z,27.50
2017-06-09T08:03:36.236Z,28.40
2017-06-09T08:06:04.517Z,28.90
2017-06-09T08:08:32.762Z,27.80
2017-06-09T08:11:01.008Z,27.80
2017-06-09T08:13:29.259Z,28.50
2017-06-09T08:15:57.489Z,28.40
2017-06-09T08:18:25.804Z,28.20
2017-06-09T08:20:54.083Z,29.30
2017-06-09T08:23:22.314Z,29.60
2017-06-09T08:25:50.579Z,28.70
2017-06-09T08:28:18.830Z,28.70
2017-06-09T08:30:47.158Z,29.00
2017-06-09T08:33:15.421Z,29.30
2017-06-09T08:35:43.661Z,29.00
2017-06-09T08:38:11.924Z,28.80
2017-06-09T08:40:40.768Z,29.50
2017-06-09T08:43:09.007Z,29.50
2017-06-09T08:45:37.250Z,29.30
2017-06-09T08:48:06.081Z,29.30
2017-06-09T08:50:34.317Z,29.40
2017-06-09T08:53:02.580Z,30.00
2017-06-09T08:55:30.859Z,30.20
2017-06-09T08:57:59.319Z,29.80
2017-06-09T09:00:27.535Z,29.60
2017-06-09T09:02:55.817Z,30.00
2017-06-09T09:05:24.047Z,30.70
2017-06-09T09:07:52.307Z,30.90
2017-06-09T09:10:20.581Z,31.00
2017-06-09T09:12:48.855Z,30.70
2017-06-09T09:15:17.098Z,31.00
2017-06-09T09:17:45.628Z,31.20
2017-06-09T09:20:14.125Z,30.90
2017-06-09T09:22:42.714Z,31.20
2017-06-09T09:25:11.365Z,31.50
2017-06-09T09:27:40.239Z,30.90
2017-06-09T09:30:08.476Z,31.10
2017-06-09T09:32:37.030Z,31.70
2017-06-09T09:35:05.900Z,32.10
2017-06-09T09:37:34.133Z,32.20
2017-06-09T09:40:02.753Z,33.20
2017-06-09T09:42:32.070Z,32.60
2017-06-09T09:45:01.503Z,32.20
2017-06-09T09:47:30.463Z,32.50
2017-06-09T09:49:58.722Z,32.40
2017-06-09T09:52:27.237Z,32.30
2017-06-09T09:54:55.592Z,32.30
2017-06-09T09:57:23.824Z,32.00
2017-06-09T09:59:52.255Z,32.20
2017-06-09T10:02:21.053Z,32.90
2017-06-09T10:04:49.303Z,32.90
2017-06-09T10:07:18.328Z,32.40
2017-06-09T10:09:47.047Z,32.80
2017-06-09T10:12:15.547Z,33.20
2017-06-09T10:14:43.867Z,33.20
2017-06-09T10:17:12.113Z,32.40
2017-06-09T10:19:40.454Z,31.90
2017-06-09T10:22:08.780Z,31.50
2017-06-09T10:24:37.687Z,31.80
2017-06-09T10:27:06.791Z,31.30
2017-06-09T10:29:35.579Z,31.10
2017-06-09T10:32:03.947Z,31.30
2017-06-09T10:34:32.189Z,31.90
2017-06-09T10:37:00.718Z,31.60
2017-06-09T10:39:29.200Z,31.40
2017-06-09T10:41:57.630Z,31.50
2017-06-09T10:44:26.482Z,32.00
2017-06-09T10:46:55.862Z,31.50
2017-06-09T10:49:24.381Z,31.40
2017-06-09T10:51:53.044Z,31.30
2017-06-09T10:54:21.299Z,31.30
2017-06-09T10:56:49.516Z,31.20
2017-06-09T10:59:17.900Z,31.30
2017-06-09T11:01:46.132Z,31.20
2017-06-09T11:04:14.445Z,31.30
2017-06-09T11:06:43.111Z,31.40
2017-06-09T11:09:11.339Z,31.40
2017-06-09T11:11:39.578Z,31.50
2017-06-09T11:14:07.850Z,31.90
2017-06-09T11:16:36.488Z,31.20
2017-06-09T11:19:04.988Z,31.20
2017-06-09T11:21:34.336Z,31.30
2017-06-09T11:24:02.573Z,30.90
2017-06-09T11:26:30.862Z,31.30
2017-06-09T11:31:27.338Z,31.40
2017-06-09T11:33:55.630Z,31.30
2017-06-09T11:36:23.884Z,31.00
2017-06-09T11:41:20.428Z,31.50
2017-06-09T11:43:48.676Z,31.30
2017-06-09T11:46:16.942Z,31.40
2017-06-09T11:48:45.526Z,31.80
2017-06-09T11:51:13.801Z,31.70
2017-06-09T11:53:42.047Z,31.80
2017-06-09T11:56:10.349Z,31.50
2017-06-09T11:58:38.842Z,31.70
2017-06-09T12:01:07.110Z,31.80
2017-06-09T12:03:35.387Z,31.50
2017-06-09T12:06:03.637Z,31.30
2017-06-09T12:08:32.153Z,31.20
2017-06-09T12:11:00.730Z,31.20
2017-06-09T12:13:29.001Z,31.30
2017-06-09T12:15:57.223Z,31.40
2017-06-09T12:18:25.493Z,31.70
2017-06-09T12:20:53.740Z,32.00
2017-06-09T12:23:21.988Z,31.90
2017-06-09T12:25:50.260Z,32.00
2017-06-09T12:28:18.504Z,32.30
2017-06-09T12:30:46.746Z,32.50
2017-06-09T12:33:15.326Z,32.20
2017-06-09T12:35:43.571Z,32.10
2017-06-09T12:38:11.864Z,32.50
2017-06-09T12:40:40.121Z,32.50
2017-06-09T12:43:08.361Z,32.70
2017-06-09T12:45:36.597Z,32.70
2017-06-09T12:48:04.876Z,32.00
2017-06-09T12:50:33.103Z,31.80
2017-06-09T12:53:01.354Z,31.70
2017-06-09T12:55:29.884Z,31.70
2017-06-09T12:57:58.137Z,32.10
2017-06-09T13:00:26.453Z,32.40
2017-06-09T13:02:54.749Z,32.30
2017-06-09T13:05:23.105Z,32.30
2017-06-09T13:07:51.331Z,32.10
2017-06-09T13:10:19.569Z,32.20
2017-06-09T13:12:47.830Z,32.20
2017-06-09T13:15:16.167Z,31.90
2017-06-09T13:17:44.706Z,32.20
2017-06-09T13:20:12.968Z,31.90
2017-06-09T13:22:41.631Z,31.40
2017-06-09T13:25:09.867Z,31.00
2017-06-09T13:27:38.119Z,31.00
2017-06-09T13:30:06.367Z,30.90
2017-06-09T13:32:34.983Z,30.80
2017-06-09T13:35:03.255Z,30.80
2017-06-09T13:37:31.619Z,31.00
2017-06-09T13:39:59.840Z,31.10
2017-06-09T13:42:28.167Z,31.30
2017-06-09T13:44:56.397Z,31.20
2017-06-09T13:47:24.946Z,30.90
2017-06-09T13:49:53.908Z,31.00
2017-06-09T13:52:22.404Z,31.10
2017-06-09T13:54:50.890Z,31.00
2017-06-09T13:57:19.261Z,30.90
2017-06-09T13:59:47.469Z,30.90
2017-06-09T14:02:15.701Z,31.00
2017-06-09T14:04:43.943Z,30.80
2017-06-09T14:07:12.194Z,30.80
2017-06-09T14:09:40.884Z,30.50
2017-06-09T14:12:09.504Z,30.40
2017-06-09T14:14:37.742Z,30.40
2017-06-09T14:17:06.082Z,30.50
2017-06-09T14:19:34.696Z,30.70
2017-06-09T14:22:02.998Z,30.80
2017-06-09T14:24:31.275Z,30.70
2017-06-09T14:26:59.523Z,30.70
2017-06-09T14:29:27.766Z,30.80
2017-06-09T14:31:56.108Z,30.60
2017-06-09T14:34:24.343Z,30.40
2017-06-09T14:36:52.570Z,30.30
2017-06-09T14:39:21.229Z,30.30
2017-06-09T14:41:49.460Z,30.20
2017-06-09T14:44:17.698Z,30.30
2017-06-09T14:46:45.996Z,30.40
2017-06-09T14:49:14.288Z,30.50
2017-06-09T14:51:42.507Z,30.40
2017-06-09T14:54:10.775Z,30.30
2017-06-09T14:56:39.021Z,30.40
2017-06-09T14:59:07.251Z,30.30
2017-06-09T15:01:35.750Z,30.10
2017-06-09T15:04:04.052Z,30.20
2017-06-09T15:06:32.268Z,30.20
2017-06-09T15:09:00.784Z,30.20
2017-06-09T15:11:29.020Z,30.40
2017-06-09T15:13:57.261Z,30.50
2017-06-09T15:16:25.781Z,30.50
2017-06-09T15:18:54.034Z,30.40
2017-06-09T15:21:22.268Z,30.40
2017-06-09T15:23:50.531Z,30.20
2017-06-09T15:26:18.772Z,30.20
2017-06-09T15:28:47.023Z,30.10
2017-06-09T15:31:15.307Z,29.90
2017-06-09T15:33:43.550Z,29.90
2017-06-09T15:36:12.052Z,29.80
2017-06-09T15:38:40.328Z,29.70
2017-06-09T15:41:08.560Z,29.80
2017-06-09T15:43:37.191Z,29.70
2017-06-09T15:46:05.416Z,29.60
2017-06-09T15:48:33.735Z,29.50
2017-06-09T15:51:02.014Z,29.50
2017-06-09T15:53:30.283Z,29.60
2017-06-09T15:55:58.505Z,29.60
2017-06-09T15:58:29.197Z,29.60
2017-06-09T16:00:57.433Z,29.60
2017-06-09T16:03:25.664Z,29.60
2017-06-09T16:05:54.006Z,29.60
2017-06-09T16:08:22.248Z,29.50
2017-06-09T16:10:50.495Z,29.40
2017-06-09T16:13:18.742Z,29.40
2017-06-09T16:15:46.983Z,29.30
2017-06-09T16:18:15.351Z,29.20
2017-06-09T16:20:43.885Z,29.00
2017-06-09T16:23:12.124Z,29.00
2017-06-09T16:25:40.427Z,28.90
2017-06-09T16:28:09.052Z,28.90
2017-06-09T16:30:37.901Z,28.80
2017-06-09T16:33:06.139Z,28.80
2017-06-09T16:35:34.587Z,28.70
2017-06-09T16:38:03.262Z,28.70
2017-06-09T16:40:31.521Z,28.70
2017-06-09T16:42:59.760Z,28.60
2017-06-09T16:45:28.148Z,28.50
2017-06-09T16:47:56.404Z,28.50
2017-06-09T16:50:25.853Z,28.40
2017-06-09T16:52:54.150Z,28.40
2017-06-09T16:55:22.493Z,28.40
2017-06-09T16:57:50.764Z,28.30
2017-06-09T17:00:19.022Z,28.30
2017-06-09T17:02:47.248Z,28.30
2017-06-09T17:05:15.494Z,28.30
2017-06-09T17:07:44.099Z,28.30
2017-06-09T17:10:12.338Z,28.20
2017-06-09T17:12:40.816Z,28.20
2017-06-09T17:15:09.672Z,28.10
2017-06-09T17:17:38.304Z,28.10
2017-06-09T17:20:06.544Z,28.10
2017-06-09T17:22:34.785Z,27.80
2017-06-09T17:25:03.045Z,27.80
2017-06-09T17:27:31.379Z,27.80
2017-06-09T17:29:59.618Z,27.70
2017-06-09T17:32:27.855Z,27.60
2017-06-09T17:34:56.142Z,27.50
2017-06-09T17:37:24.388Z,27.40
2017-06-09T17:39:52.638Z,27.20
2017-06-09T17:42:21.338Z,26.80
2017-06-09T17:44:49.572Z,26.80
2017-06-09T17:47:17.865Z,26.70
2017-06-09T17:49:46.613Z,26.30
2017-06-09T17:52:14.859Z,26.30
2017-06-09T17:54:43.393Z,26.20
2017-06-09T17:57:11.644Z,26.10
2017-06-09T17:59:39.895Z,25.90
2017-06-09T18:02:08.140Z,25.90
2017-06-09T18:04:36.416Z,25.70
2017-06-09T18:07:05.196Z,25.20
2017-06-09T18:09:33.900Z,25.30
2017-06-09T18:12:02.955Z,25.20
2017-06-09T18:14:31.997Z,25.10
2017-06-09T18:17:00.468Z,25.10
2017-06-09T18:19:28.740Z,25.10
2017-06-09T18:21:58.105Z,24.70
2017-06-09T18:24:26.387Z,24.70
2017-06-09T18:26:54.691Z,24.50
2017-06-09T18:29:22.925Z,24.50
2017-06-09T18:31:51.212Z,24.50
2017-06-09T18:34:19.454Z,24.50
2017-06-09T18:36:47.726Z,24.50
2017-06-09T18:39:16.038Z,24.50
2017-06-09T18:41:44.260Z,24.40
2017-06-09T18:44:12.525Z,24.40
2017-06-09T18:46:40.814Z,24.30
2017-06-09T18:49:09.059Z,23.90
2017-06-09T18:51:38.219Z,23.90
2017-06-09T18:54:06.446Z,24.00
2017-06-09T18:56:35.116Z,24.10
2017-06-09T18:59:03.380Z,24.10
2017-06-09T19:01:31.623Z,24.00
2017-06-09T19:03:59.869Z,23.80
2017-06-09T19:06:28.224Z,23.80
2017-06-09T19:08:56.461Z,23.90
2017-06-09T19:11:24.968Z,23.80
2017-06-09T19:13:53.406Z,23.70
2017-06-09T19:16:21.666Z,23.80
2017-06-09T19:18:50.086Z,23.80
2017-06-09T19:21:19.095Z,23.90
2017-06-09T19:23:47.348Z,23.90
2017-06-09T19:26:15.840Z,23.80
2017-06-09T19:28:44.098Z,23.70
2017-06-09T19:31:12.449Z,23.70
2017-06-09T19:33:40.772Z,23.60
2017-06-09T19:36:09.011Z,23.40
2017-06-09T19:38:37.247Z,23.20
2017-06-09T19:41:05.758Z,23.20
2017-06-09T19:43:33.988Z,23.20
2017-06-09T19:46:02.258Z,23.30
2017-06-09T19:48:30.608Z,23.10
2017-06-09T19:50:58.862Z,23.20
2017-06-09T19:53:27.109Z,23.30
2017-06-09T19:55:55.548Z,23.30
2017-06-09T19:58:24.568Z,23.40
2017-06-09T20:00:52.814Z,23.30
2017-06-09T20:03:21.164Z,23.10
2017-06-09T20:05:49.831Z,22.90
2017-06-09T20:08:18.841Z,22.40
2017-06-09T20:10:48.123Z,22.50
2017-06-09T20:13:18.358Z,22.50
2017-06-09T20:15:47.777Z,22.60
2017-06-09T20:18:17.801Z,22.60
2017-06-09T20:20:46.386Z,22.70
2017-06-09T20:23:14.747Z,22.70
2017-06-09T20:25:42.998Z,22.80
2017-06-09T20:28:11.724Z,22.70
2017-06-09T20:30:39.981Z,22.70
2017-06-09T20:33:08.302Z,22.80
2017-06-09T20:35:37.170Z,22.90
2017-06-09T20:38:05.564Z,22.90
2017-06-09T20:40:34.323Z,22.50
2017-06-09T20:43:02.855Z,22.50
2017-06-09T20:45:31.081Z,22.30
2017-06-09T20:47:59.336Z,22.40
2017-06-09T20:50:27.587Z,22.60
2017-06-09T20:52:55.832Z,22.60
2017-06-09T20:55:24.293Z,22.60
2017-06-09T20:57:52.821Z,22.60
2017-06-09T21:00:21.076Z,22.60
2017-06-09T21:02:49.351Z,22.50
2017-06-09T21:05:17.624Z,22.50
2017-06-09T21:07:45.869Z,22.40
2017-06-09T21:10:14.125Z,22.50
2017-06-09T21:12:42.753Z,22.20
2017-06-09T21:15:11.018Z,22.20
2017-06-09T21:17:39.294Z,22.30
2017-06-09T21:20:07.531Z,22.20
2017-06-09T21:22:36.169Z,22.00
2017-06-09T21:25:04.644Z,22.10
2017-06-09T21:27:32.880Z,21.90
2017-06-09T21:30:01.853Z,22.00
2017-06-09T21:32:30.088Z,22.00
2017-06-09T21:34:58.321Z,22.00
2017-06-09T21:37:27.303Z,22.00
2017-06-09T21:39:55.537Z,22.00
2017-06-09T21:42:23.775Z,22.00
2017-06-09T21:44:52.063Z,22.00
2017-06-09T21:47:20.302Z,22.10
2017-06-09T21:49:48.948Z,22.00
2017-06-09T21:52:17.448Z,22.00
2017-06-09T21:54:45.680Z,22.00
2017-06-09T21:57:13.923Z,22.00
2017-06-09T21:59:42.364Z,22.10
2017-06-09T22:02:10.733Z,22.20
2017-06-09T22:04:38.975Z,22.30
2017-06-09T22:07:07.598Z,22.10
2017-06-09T22:09:35.843Z,22.20
2017-06-09T22:12:04.085Z,22.20
2017-06-09T22:14:32.343Z,22.30
2017-06-09T22:17:00.813Z,22.10
2017-06-09T22:19:29.072Z,22.10
2017-06-09T22:21:58.263Z,22.20
2017-06-09T22:24:26.503Z,22.20
2017-06-09T22:26:55.191Z,21.80
2017-06-09T22:29:23.820Z,21.80
2017-06-09T22:31:52.061Z,21.80
2017-06-09T22:34:20.343Z,22.00
2017-06-09T22:36:48.584Z,22.00
2017-06-09T22:39:16.823Z,21.90
2017-06-09T22:41:45.102Z,21.90
2017-06-09T22:44:13.345Z,22.00
2017-06-09T22:46:41.656Z,22.00
2017-06-09T22:49:09.929Z,21.80
2017-06-09T22:51:38.293Z,21.90
2017-06-09T22:54:06.513Z,21.70
2017-06-09T22:56:34.875Z,21.30
2017-06-09T22:59:03.108Z,20.90
2017-06-09T23:01:31.636Z,20.60
2017-06-09T23:04:00.131Z,20.40
2017-06-09T23:06:28.367Z,20.30
2017-06-09T23:08:56.603Z,20.20
2017-06-09T23:11:24.877Z,20.50
2017-06-09T23:13:53.126Z,20.70
2017-06-09T23:16:21.368Z,20.70
2017-06-09T23:18:49.641Z,20.70
2017-06-09T23:21:17.874Z,20.70
2017-06-09T23:23:46.128Z,20.40
2017-06-09T23:26:14.497Z,20.40
2017-06-09T23:28:45.507Z,20.40
2017-06-09T23:31:19.615Z,20.40
2017-06-09T23:33:47.853Z,20.40
2017-06-09T23:36:16.079Z,20.50
2017-06-09T23:38:44.348Z,20.50
2017-06-09T23:41:12.588Z,20.70
2017-06-09T23:43:40.819Z,20.50
2017-06-09T23:46:09.063Z,20.50
2017-06-09T23:48:37.300Z,20.50
2017-06-09T23:51:05.965Z,20.10
2017-06-09T23:53:34.204Z,19.50
2017-06-09T23:56:02.431Z,19.80
2017-06-09T23:58:31.101Z,19.60
